Terminal Aerodrome Forecast
Issued by NWS Duluth, MN

Home | Current Version | Previous Version | Text Only | Print | Product List | Glossary On
Versions: 1 2 3 4 5 6 7 8 9 10 11 12 13 14 15 16 17 18 19 20 21 22 23 24
000
FTUS43 KDLH 191000 AAA
TAFDLH
TAF AMD
KDLH 191009Z 1910/2006 22004KT 5SM -SN BR OVC029
      TEMPO 1910/1912 1 1/2SM -SN OVC024
     FM191300 29009KT 6SM -SN BKN020 OVC040
     FM191800 30015G24KT P6SM -SN SCT025 OVC035
     FM200000 29012KT P6SM BKN035=

USA.gov is the U.S. government's official web portal to all federal, state and local government web resources and services.